sensor_id;sensor_type;location;lat;lon;timestamp;temperature;humidity
7046;DHT22;3564;53.326;10.356;2023-07-20T00:01:27;19.10;99.90
7046;DHT22;3564;53.326;10.356;2023-07-20T00:03:52;19.10;99.90
7046;DHT22;3564;53.326;10.356;2023-07-20T00:06:25;19.10;99.90
7046;DHT22;3564;53.326;10.356;2023-07-20T00:08:53;19.00;99.90
7046;DHT22;3564;53.326;10.356;2023-07-20T00:11:19;19.00;99.90
7046;DHT22;3564;53.326;10.356;2023-07-20T00:13:44;19.00;99.90
7046;DHT22;3564;53.326;10.356;2023-07-20T00:16:10;19.00;99.90
7046;DHT22;3564;53.326;10.356;2023-07-20T00:18:35;19.00;99.90
7046;DHT22;3564;53.326;10.356;2023-07-20T00:21:01;18.90;99.90
7046;DHT22;3564;53.326;10.356;2023-07-20T00:23:27;18.90;99.90
7046;DHT22;3564;53.326;10.356;2023-07-20T00:25:53;18.90;99.90
7046;DHT22;3564;53.326;10.356;2023-07-20T00:28:19;18.80;99.90
7046;DHT22;3564;53.326;10.356;2023-07-20T00:30:44;18.80;99.90
7046;DHT22;3564;53.326;10.356;2023-07-20T00:33:11;18.80;99.90
7046;DHT22;3564;53.326;10.356;2023-07-20T00:35:42;18.80;99.90
7046;DHT22;3564;53.326;10.356;2023-07-20T00:38:08;18.80;99.90
7046;DHT22;3564;53.326;10.356;2023-07-20T00:40:40;18.80;99.90
7046;DHT22;3564;53.326;10.356;2023-07-20T00:43:06;18.80;99.90
7046;DHT22;3564;53.326;10.356;2023-07-20T00:45:34;18.80;99.90
7046;DHT22;3564;53.326;10.356;2023-07-20T00:48:01;18.80;99.90
7046;DHT22;3564;53.326;10.356;2023-07-20T00:50:28;18.70;99.90
7046;DHT22;3564;53.326;10.356;2023-07-20T00:52:55;18.70;99.90
7046;DHT22;3564;53.326;10.356;2023-07-20T00:55:22;18.70;99.90
7046;DHT22;3564;53.326;10.356;2023-07-20T00:57:48;18.70;99.90
7046;DHT22;3564;53.326;10.356;2023-07-20T01:00:15;18.70;99.90
7046;DHT22;3564;53.326;10.356;2023-07-20T01:02:41;18.60;99.90
7046;DHT22;3564;53.326;10.356;2023-07-20T01:05:06;18.60;99.90
7046;DHT22;3564;53.326;10.356;2023-07-20T01:07:44;18.60;99.90
7046;DHT22;3564;53.326;10.356;2023-07-20T01:12:47;18.60;99.90
7046;DHT22;3564;53.326;10.356;2023-07-20T01:15:12;18.60;99.90
7046;DHT22;3564;53.326;10.356;2023-07-20T01:17:41;18.60;99.90
7046;DHT22;3564;53.326;10.356;2023-07-20T01:20:08;18.50;99.90
7046;DHT22;3564;53.326;10.356;2023-07-20T01:25:56;18.50;99.90
7046;DHT22;3564;53.326;10.356;2023-07-20T01:33:46;18.50;99.90
7046;DHT22;3564;53.326;10.356;2023-07-20T01:36:13;18.40;99.90
7046;DHT22;3564;53.326;10.356;2023-07-20T01:38:39;18.40;99.90
7046;DHT22;3564;53.326;10.356;2023-07-20T01:41:05;18.40;99.90
7046;DHT22;3564;53.326;10.356;2023-07-20T01:43:31;18.40;99.90
7046;DHT22;3564;53.326;10.356;2023-07-20T01:45:56;18.40;99.90
7046;DHT22;3564;53.326;10.356;2023-07-20T01:48:22;18.40;99.90
7046;DHT22;3564;53.326;10.356;2023-07-20T01:50:54;18.40;99.90
7046;DHT22;3564;53.326;10.356;2023-07-20T01:53:28;18.40;99.90
7046;DHT22;3564;53.326;10.356;2023-07-20T01:56:00;18.40;99.90
7046;DHT22;3564;53.326;10.356;2023-07-20T01:58:25;18.30;99.90
7046;DHT22;3564;53.326;10.356;2023-07-20T02:00:51;18.30;99.90
7046;DHT22;3564;53.326;10.356;2023-07-20T02:03:17;18.40;99.90
7046;DHT22;3564;53.326;10.356;2023-07-20T02:05:42;18.40;99.90
7046;DHT22;3564;53.326;10.356;2023-07-20T02:08:08;18.40;99.90
7046;DHT22;3564;53.326;10.356;2023-07-20T02:10:34;18.40;99.90
7046;DHT22;3564;53.326;10.356;2023-07-20T02:13:00;18.40;99.90
7046;DHT22;3564;53.326;10.356;2023-07-20T02:15:35;18.40;99.90
7046;DHT22;3564;53.326;10.356;2023-07-20T02:18:00;18.40;99.90
7046;DHT22;3564;53.326;10.356;2023-07-20T02:20:26;18.50;99.90
7046;DHT22;3564;53.326;10.356;2023-07-20T02:22:52;18.40;99.90
7046;DHT22;3564;53.326;10.356;2023-07-20T02:25:18;18.40;99.90
7046;DHT22;3564;53.326;10.356;2023-07-20T02:27:44;18.40;99.90
7046;DHT22;3564;53.326;10.356;2023-07-20T02:30:13;18.40;99.90
7046;DHT22;3564;53.326;10.356;2023-07-20T02:32:45;18.40;99.90
7046;DHT22;3564;53.326;10.356;2023-07-20T02:35:11;18.40;99.90
7046;DHT22;3564;53.326;10.356;2023-07-20T02:37:37;18.40;99.90
7046;DHT22;3564;53.326;10.356;2023-07-20T02:40:03;18.50;99.90
7046;DHT22;3564;53.326;10.356;2023-07-20T02:42:30;18.50;99.90
7046;DHT22;3564;53.326;10.356;2023-07-20T02:44:55;18.50;99.90
7046;DHT22;3564;53.326;10.356;2023-07-20T02:47:21;18.50;99.90
7046;DHT22;3564;53.326;10.356;2023-07-20T02:49:49;18.50;99.90
7046;DHT22;3564;53.326;10.356;2023-07-20T02:52:15;18.50;99.90
7046;DHT22;3564;53.326;10.356;2023-07-20T02:54:44;18.50;99.90
7046;DHT22;3564;53.326;10.356;2023-07-20T02:57:09;18.50;99.90
7046;DHT22;3564;53.326;10.356;2023-07-20T02:59:35;18.50;99.90
7046;DHT22;3564;53.326;10.356;2023-07-20T03:02:00;18.50;99.90
7046;DHT22;3564;53.326;10.356;2023-07-20T03:04:26;18.50;99.90
7046;DHT22;3564;53.326;10.356;2023-07-20T03:06:52;18.50;99.90
7046;DHT22;3564;53.326;10.356;2023-07-20T03:09:18;18.50;99.90
7046;DHT22;3564;53.326;10.356;2023-07-20T03:11:43;18.50;99.90
7046;DHT22;3564;53.326;10.356;2023-07-20T03:14:09;18.50;99.90
7046;DHT22;3564;53.326;10.356;2023-07-20T03:16:36;18.50;99.90
7046;DHT22;3564;53.326;10.356;2023-07-20T03:19:04;18.50;99.90
7046;DHT22;3564;53.326;10.356;2023-07-20T03:21:39;18.50;99.90
7046;DHT22;3564;53.326;10.356;2023-07-20T03:24:07;18.50;99.90
7046;DHT22;3564;53.326;10.356;2023-07-20T03:26:34;18.40;99.90
7046;DHT22;3564;53.326;10.356;2023-07-20T03:28:59;18.40;99.90
7046;DHT22;3564;53.326;10.356;2023-07-20T03:31:25;18.40;99.90
7046;DHT22;3564;53.326;10.356;2023-07-20T03:33:51;18.40;99.90
7046;DHT22;3564;53.326;10.356;2023-07-20T03:36:20;18.40;99.90
7046;DHT22;3564;53.326;10.356;2023-07-20T03:38:46;18.40;99.90
7046;DHT22;3564;53.326;10.356;2023-07-20T03:41:17;18.30;99.90
7046;DHT22;3564;53.326;10.356;2023-07-20T03:43:45;18.30;99.90
7046;DHT22;3564;53.326;10.356;2023-07-20T03:46:13;18.30;99.90
7046;DHT22;3564;53.326;10.356;2023-07-20T03:48:42;18.30;99.90
7046;DHT22;3564;53.326;10.356;2023-07-20T03:51:08;18.30;99.90
7046;DHT22;3564;53.326;10.356;2023-07-20T03:53:33;18.30;99.90
7046;DHT22;3564;53.326;10.356;2023-07-20T03:55:59;18.30;99.90
7046;DHT22;3564;53.326;10.356;2023-07-20T03:58:24;18.30;99.90
7046;DHT22;3564;53.326;10.356;2023-07-20T04:00:51;18.30;99.90
7046;DHT22;3564;53.326;10.356;2023-07-20T04:03:20;18.30;99.90
7046;DHT22;3564;53.326;10.356;2023-07-20T04:05:46;18.30;99.90
7046;DHT22;3564;53.326;10.356;2023-07-20T04:08:14;18.40;99.90
7046;DHT22;3564;53.326;10.356;2023-07-20T04:10:43;18.30;99.90
7046;DHT22;3564;53.326;10.356;2023-07-20T04:13:09;18.30;99.90
7046;DHT22;3564;53.326;10.356;2023-07-20T04:15:35;18.30;99.90
7046;DHT22;3564;53.326;10.356;2023-07-20T04:18:01;18.30;99.90
7046;DHT22;3564;53.326;10.356;2023-07-20T04:20:32;18.20;99.90
7046;DHT22;3564;53.326;10.356;2023-07-20T04:22:58;18.20;99.90
7046;DHT22;3564;53.326;10.356;2023-07-20T04:25:23;18.30;99.90
7046;DHT22;3564;53.326;10.356;2023-07-20T04:27:49;18.30;99.90
7046;DHT22;3564;53.326;10.356;2023-07-20T04:30:17;18.30;99.90
7046;DHT22;3564;53.326;10.356;2023-07-20T04:32:45;18.30;99.90
7046;DHT22;3564;53.326;10.356;2023-07-20T04:35:17;18.40;99.90
7046;DHT22;3564;53.326;10.356;2023-07-20T04:37:43;18.40;99.90
7046;DHT22;3564;53.326;10.356;2023-07-20T04:40:18;18.40;99.90
7046;DHT22;3564;53.326;10.356;2023-07-20T04:42:43;18.40;99.90
7046;DHT22;3564;53.326;10.356;2023-07-20T04:45:09;18.40;99.90
7046;DHT22;3564;53.326;10.356;2023-07-20T04:47:34;18.40;99.90
7046;DHT22;3564;53.326;10.356;2023-07-20T04:50:00;18.40;99.90
7046;DHT22;3564;53.326;10.356;2023-07-20T04:52:25;18.40;99.90
7046;DHT22;3564;53.326;10.356;2023-07-20T04:54:51;18.50;99.90
7046;DHT22;3564;53.326;10.356;2023-07-20T04:57:16;18.40;99.90
7046;DHT22;3564;53.326;10.356;2023-07-20T04:59:42;18.50;99.90
7046;DHT22;3564;53.326;10.356;2023-07-20T05:02:08;18.50;99.90
7046;DHT22;3564;53.326;10.356;2023-07-20T05:04:33;18.50;99.90
7046;DHT22;3564;53.326;10.356;2023-07-20T05:06:59;18.60;99.90
7046;DHT22;3564;53.326;10.356;2023-07-20T05:09:25;18.50;99.90
7046;DHT22;3564;53.326;10.356;2023-07-20T05:11:51;18.60;99.90
7046;DHT22;3564;53.326;10.356;2023-07-20T05:14:16;18.60;99.90
7046;DHT22;3564;53.326;10.356;2023-07-20T05:16:42;18.60;99.90
7046;DHT22;3564;53.326;10.356;2023-07-20T05:19:07;18.60;99.90
7046;DHT22;3564;53.326;10.356;2023-07-20T05:21:36;18.70;99.90
7046;DHT22;3564;53.326;10.356;2023-07-20T05:24:11;18.60;99.90
7046;DHT22;3564;53.326;10.356;2023-07-20T05:26:36;18.70;99.90
7046;DHT22;3564;53.326;10.356;2023-07-20T05:29:03;18.70;99.90
7046;DHT22;3564;53.326;10.356;2023-07-20T05:31:28;18.70;99.90
7046;DHT22;3564;53.326;10.356;2023-07-20T05:33:55;18.60;99.90
7046;DHT22;3564;53.326;10.356;2023-07-20T05:36:27;18.70;99.90
7046;DHT22;3564;53.326;10.356;2023-07-20T05:38:53;18.70;99.90
7046;DHT22;3564;53.326;10.356;2023-07-20T05:41:21;18.70;99.90
7046;DHT22;3564;53.326;10.356;2023-07-20T05:43:48;18.80;99.90
7046;DHT22;3564;53.326;10.356;2023-07-20T05:46:13;18.80;99.90
7046;DHT22;3564;53.326;10.356;2023-07-20T05:48:39;18.90;99.90
7046;DHT22;3564;53.326;10.356;2023-07-20T05:51:05;18.90;99.90
7046;DHT22;3564;53.326;10.356;2023-07-20T05:53:35;18.90;99.90
7046;DHT22;3564;53.326;10.356;2023-07-20T05:56:00;18.90;99.90
7046;DHT22;3564;53.326;10.356;2023-07-20T05:58:26;19.00;99.90
7046;DHT22;3564;53.326;10.356;2023-07-20T06:00:53;18.90;99.90
7046;DHT22;3564;53.326;10.356;2023-07-20T06:03:19;19.00;99.90
7046;DHT22;3564;53.326;10.356;2023-07-20T06:05:46;19.00;99.90
7046;DHT22;3564;53.326;10.356;2023-07-20T06:08:12;19.00;99.90
7046;DHT22;3564;53.326;10.356;2023-07-20T06:10:40;19.00;99.90
7046;DHT22;3564;53.326;10.356;2023-07-20T06:13:06;19.10;99.90
7046;DHT22;3564;53.326;10.356;2023-07-20T06:15:33;19.10;99.90
7046;DHT22;3564;53.326;10.356;2023-07-20T06:18:00;19.00;99.90
7046;DHT22;3564;53.326;10.356;2023-07-20T06:20:26;19.00;99.90
7046;DHT22;3564;53.326;10.356;2023-07-20T06:22:52;19.00;99.90
7046;DHT22;3564;53.326;10.356;2023-07-20T06:25:17;19.10;99.90
7046;DHT22;3564;53.326;10.356;2023-07-20T06:27:43;19.10;99.90
7046;DHT22;3564;53.326;10.356;2023-07-20T06:30:10;19.10;99.90
7046;DHT22;3564;53.326;10.356;2023-07-20T06:32:35;19.10;99.90
7046;DHT22;3564;53.326;10.356;2023-07-20T06:35:01;19.10;99.90
7046;DHT22;3564;53.326;10.356;2023-07-20T06:37:26;19.00;99.90
7046;DHT22;3564;53.326;10.356;2023-07-20T06:39:52;19.00;99.90
7046;DHT22;3564;53.326;10.356;2023-07-20T06:42:18;19.00;99.90
7046;DHT22;3564;53.326;10.356;2023-07-20T06:44:43;19.00;99.90
7046;DHT22;3564;53.326;10.356;2023-07-20T06:47:09;19.00;99.90
7046;DHT22;3564;53.326;10.356;2023-07-20T06:49:34;19.10;99.90
7046;DHT22;3564;53.326;10.356;2023-07-20T06:52:00;19.00;99.90
7046;DHT22;3564;53.326;10.356;2023-07-20T06:54:29;19.00;99.90
7046;DHT22;3564;53.326;10.356;2023-07-20T06:56:54;19.20;99.90
7046;DHT22;3564;53.326;10.356;2023-07-20T06:59:20;19.10;99.90
7046;DHT22;3564;53.326;10.356;2023-07-20T07:01:46;19.20;99.90
7046;DHT22;3564;53.326;10.356;2023-07-20T07:04:14;19.10;99.90
7046;DHT22;3564;53.326;10.356;2023-07-20T07:06:40;19.10;99.90
7046;DHT22;3564;53.326;10.356;2023-07-20T07:09:18;19.10;99.90
7046;DHT22;3564;53.326;10.356;2023-07-20T07:11:44;19.20;99.90
7046;DHT22;3564;53.326;10.356;2023-07-20T07:14:11;19.30;99.90
7046;DHT22;3564;53.326;10.356;2023-07-20T07:16:37;19.40;99.90
7046;DHT22;3564;53.326;10.356;2023-07-20T07:19:02;19.50;99.90
7046;DHT22;3564;53.326;10.356;2023-07-20T07:21:28;19.70;99.90
7046;DHT22;3564;53.326;10.356;2023-07-20T07:23:55;19.80;99.90
7046;DHT22;3564;53.326;10.356;2023-07-20T07:26:23;19.90;99.90
7046;DHT22;3564;53.326;10.356;2023-07-20T07:28:49;20.00;99.90
7046;DHT22;3564;53.326;10.356;2023-07-20T07:31:14;20.10;99.90
7046;DHT22;3564;53.326;10.356;2023-07-20T07:33:40;20.20;99.90
7046;DHT22;3564;53.326;10.356;2023-07-20T07:36:08;20.20;99.90
7046;DHT22;3564;53.326;10.356;2023-07-20T07:38:34;20.20;99.90
7046;DHT22;3564;53.326;10.356;2023-07-20T07:40:59;20.10;99.90
7046;DHT22;3564;53.326;10.356;2023-07-20T07:43:25;20.10;99.90
7046;DHT22;3564;53.326;10.356;2023-07-20T07:45:53;20.10;99.90
7046;DHT22;3564;53.326;10.356;2023-07-20T07:48:19;20.10;99.90
7046;DHT22;3564;53.326;10.356;2023-07-20T07:50:46;20.20;99.90
7046;DHT22;3564;53.326;10.356;2023-07-20T07:53:12;20.20;99.90
7046;DHT22;3564;53.326;10.356;2023-07-20T07:55:41;20.20;99.40
7046;DHT22;3564;53.326;10.356;2023-07-20T07:58:07;20.20;99.20
7046;DHT22;3564;53.326;10.356;2023-07-20T08:00:32;20.30;99.30
7046;DHT22;3564;53.326;10.356;2023-07-20T08:02:58;20.30;99.40
7046;DHT22;3564;53.326;10.356;2023-07-20T08:05:23;20.50;99.50
7046;DHT22;3564;53.326;10.356;2023-07-20T08:07:49;20.50;99.20
7046;DHT22;3564;53.326;10.356;2023-07-20T08:10:15;20.60;99.50
7046;DHT22;3564;53.326;10.356;2023-07-20T08:12:43;20.70;99.10
7046;DHT22;3564;53.326;10.356;2023-07-20T08:15:11;20.80;98.70
7046;DHT22;3564;53.326;10.356;2023-07-20T08:17:36;20.80;98.30
7046;DHT22;3564;53.326;10.356;2023-07-20T08:20:02;20.80;98.60
7046;DHT22;3564;53.326;10.356;2023-07-20T08:22:28;20.80;98.50
7046;DHT22;3564;53.326;10.356;2023-07-20T08:24:53;20.90;98.30
7046;DHT22;3564;53.326;10.356;2023-07-20T08:27:19;20.90;98.30
7046;DHT22;3564;53.326;10.356;2023-07-20T08:29:47;20.90;97.70
7046;DHT22;3564;53.326;10.356;2023-07-20T08:32:13;21.00;97.30
7046;DHT22;3564;53.326;10.356;2023-07-20T08:34:42;21.00;97.20
7046;DHT22;3564;53.326;10.356;2023-07-20T08:37:08;21.10;97.10
7046;DHT22;3564;53.326;10.356;2023-07-20T08:39:38;21.10;97.20
7046;DHT22;3564;53.326;10.356;2023-07-20T08:42:04;21.20;97.00
7046;DHT22;3564;53.326;10.356;2023-07-20T08:44:33;21.30;95.20
7046;DHT22;3564;53.326;10.356;2023-07-20T08:47:06;21.30;93.80
7046;DHT22;3564;53.326;10.356;2023-07-20T08:49:32;21.30;94.20
7046;DHT22;3564;53.326;10.356;2023-07-20T08:51:59;21.30;94.80
7046;DHT22;3564;53.326;10.356;2023-07-20T08:54:29;21.30;95.20
7046;DHT22;3564;53.326;10.356;2023-07-20T08:56:59;21.30;93.80
7046;DHT22;3564;53.326;10.356;2023-07-20T08:59:25;21.20;91.80
7046;DHT22;3564;53.326;10.356;2023-07-20T09:01:52;21.20;91.10
7046;DHT22;3564;53.326;10.356;2023-07-20T09:04:19;21.30;91.50
7046;DHT22;3564;53.326;10.356;2023-07-20T09:06:45;21.30;92.00
7046;DHT22;3564;53.326;10.356;2023-07-20T09:09:10;21.40;92.70
7046;DHT22;3564;53.326;10.356;2023-07-20T09:11:36;21.60;93.70
7046;DHT22;3564;53.326;10.356;2023-07-20T09:14:06;21.70;93.40
7046;DHT22;3564;53.326;10.356;2023-07-20T09:16:32;21.70;93.00
7046;DHT22;3564;53.326;10.356;2023-07-20T09:18:58;21.80;93.20
7046;DHT22;3564;53.326;10.356;2023-07-20T09:21:29;21.70;92.10
7046;DHT22;3564;53.326;10.356;2023-07-20T09:23:57;21.80;92.10
7046;DHT22;3564;53.326;10.356;2023-07-20T09:26:25;21.90;92.40
7046;DHT22;3564;53.326;10.356;2023-07-20T09:28:54;22.10;92.50
7046;DHT22;3564;53.326;10.356;2023-07-20T09:31:22;22.20;92.50
7046;DHT22;3564;53.326;10.356;2023-07-20T09:33:49;22.30;92.70
7046;DHT22;3564;53.326;10.356;2023-07-20T09:36:15;22.30;92.50
7046;DHT22;3564;53.326;10.356;2023-07-20T09:38:44;22.30;91.50
7046;DHT22;3564;53.326;10.356;2023-07-20T09:41:15;22.30;92.10
7046;DHT22;3564;53.326;10.356;2023-07-20T09:43:45;22.30;91.70
7046;DHT22;3564;53.326;10.356;2023-07-20T09:46:17;22.30;91.40
7046;DHT22;3564;53.326;10.356;2023-07-20T09:48:54;22.40;91.90
7046;DHT22;3564;53.326;10.356;2023-07-20T09:51:23;22.40;91.70
7046;DHT22;3564;53.326;10.356;2023-07-20T09:53:52;22.20;92.00
7046;DHT22;3564;53.326;10.356;2023-07-20T09:56:21;22.00;93.20
7046;DHT22;3564;53.326;10.356;2023-07-20T09:58:48;21.70;95.50
7046;DHT22;3564;53.326;10.356;2023-07-20T10:01:18;21.50;96.80
7046;DHT22;3564;53.326;10.356;2023-07-20T10:03:46;21.30;97.00
7046;DHT22;3564;53.326;10.356;2023-07-20T10:06:15;21.40;98.00
7046;DHT22;3564;53.326;10.356;2023-07-20T10:08:47;21.40;98.50
7046;DHT22;3564;53.326;10.356;2023-07-20T10:11:15;21.40;98.70
7046;DHT22;3564;53.326;10.356;2023-07-20T10:13:43;21.40;98.70
7046;DHT22;3564;53.326;10.356;2023-07-20T10:16:15;21.50;98.50
7046;DHT22;3564;53.326;10.356;2023-07-20T10:18:50;21.60;98.40
7046;DHT22;3564;53.326;10.356;2023-07-20T10:21:20;21.70;98.50
7046;DHT22;3564;53.326;10.356;2023-07-20T10:23:48;21.80;98.20
7046;DHT22;3564;53.326;10.356;2023-07-20T10:26:17;21.80;96.50
7046;DHT22;3564;53.326;10.356;2023-07-20T10:28:46;21.80;96.40
7046;DHT22;3564;53.326;10.356;2023-07-20T10:31:12;21.90;97.40
7046;DHT22;3564;53.326;10.356;2023-07-20T10:33:38;22.10;96.00
7046;DHT22;3564;53.326;10.356;2023-07-20T10:36:05;22.20;95.70
7046;DHT22;3564;53.326;10.356;2023-07-20T10:41:27;22.50;96.80
7046;DHT22;3564;53.326;10.356;2023-07-20T10:43:59;22.50;98.40
7046;DHT22;3564;53.326;10.356;2023-07-20T10:49:05;22.00;97.50
7046;DHT22;3564;53.326;10.356;2023-07-20T10:51:45;21.90;98.50
7046;DHT22;3564;53.326;10.356;2023-07-20T10:56:44;21.70;99.40
7046;DHT22;3564;53.326;10.356;2023-07-20T11:01:46;21.60;99.90
7046;DHT22;3564;53.326;10.356;2023-07-20T11:04:16;21.60;99.90
7046;DHT22;3564;53.326;10.356;2023-07-20T11:06:45;21.60;99.90
7046;DHT22;3564;53.326;10.356;2023-07-20T11:09:13;21.70;99.90
7046;DHT22;3564;53.326;10.356;2023-07-20T11:11:46;21.70;99.90
7046;DHT22;3564;53.326;10.356;2023-07-20T11:14:25;21.80;99.90
7046;DHT22;3564;53.326;10.356;2023-07-20T11:16:52;21.90;99.90
7046;DHT22;3564;53.326;10.356;2023-07-20T11:19:23;22.10;99.90
7046;DHT22;3564;53.326;10.356;2023-07-20T11:21:57;22.00;99.90
7046;DHT22;3564;53.326;10.356;2023-07-20T11:24:23;22.10;99.90
7046;DHT22;3564;53.326;10.356;2023-07-20T11:26:53;21.90;99.90
7046;DHT22;3564;53.326;10.356;2023-07-20T11:29:22;21.90;99.90
7046;DHT22;3564;53.326;10.356;2023-07-20T11:31:53;21.80;99.90
7046;DHT22;3564;53.326;10.356;2023-07-20T11:34:20;21.70;99.90
7046;DHT22;3564;53.326;10.356;2023-07-20T11:36:51;21.70;99.90
7046;DHT22;3564;53.326;10.356;2023-07-20T11:39:18;21.70;99.90
7046;DHT22;3564;53.326;10.356;2023-07-20T11:41:49;21.80;99.90
7046;DHT22;3564;53.326;10.356;2023-07-20T11:44:28;21.80;99.90
7046;DHT22;3564;53.326;10.356;2023-07-20T11:47:04;21.80;99.90
7046;DHT22;3564;53.326;10.356;2023-07-20T11:49:34;21.70;99.90
7046;DHT22;3564;53.326;10.356;2023-07-20T11:52:01;21.70;99.90
7046;DHT22;3564;53.326;10.356;2023-07-20T11:54:27;21.90;99.90
7046;DHT22;3564;53.326;10.356;2023-07-20T11:56:56;22.00;99.90
7046;DHT22;3564;53.326;10.356;2023-07-20T11:59:21;22.10;99.60
7046;DHT22;3564;53.326;10.356;2023-07-20T12:01:50;22.00;98.70
7046;DHT22;3564;53.326;10.356;2023-07-20T12:04:17;22.00;98.70
7046;DHT22;3564;53.326;10.356;2023-07-20T12:06:49;21.90;98.20
7046;DHT22;3564;53.326;10.356;2023-07-20T12:09:16;22.00;97.20
7046;DHT22;3564;53.326;10.356;2023-07-20T12:11:43;22.00;96.20
7046;DHT22;3564;53.326;10.356;2023-07-20T12:14:10;22.10;97.00
7046;DHT22;3564;53.326;10.356;2023-07-20T12:16:36;22.30;96.30
7046;DHT22;3564;53.326;10.356;2023-07-20T12:19:09;22.50;96.10
7046;DHT22;3564;53.326;10.356;2023-07-20T12:21:36;22.60;95.90
7046;DHT22;3564;53.326;10.356;2023-07-20T12:24:02;22.60;95.30
7046;DHT22;3564;53.326;10.356;2023-07-20T12:26:29;22.70;95.20
7046;DHT22;3564;53.326;10.356;2023-07-20T12:28:55;22.70;95.00
7046;DHT22;3564;53.326;10.356;2023-07-20T12:31:21;22.70;95.00
7046;DHT22;3564;53.326;10.356;2023-07-20T12:33:52;22.70;94.80
7046;DHT22;3564;53.326;10.356;2023-07-20T12:36:18;22.80;94.60
7046;DHT22;3564;53.326;10.356;2023-07-20T12:38:44;22.80;94.80
7046;DHT22;3564;53.326;10.356;2023-07-20T12:41:12;22.90;95.30
7046;DHT22;3564;53.326;10.356;2023-07-20T12:43:44;23.10;94.40
7046;DHT22;3564;53.326;10.356;2023-07-20T12:46:10;23.10;94.40
7046;DHT22;3564;53.326;10.356;2023-07-20T12:48:40;23.30;95.00
7046;DHT22;3564;53.326;10.356;2023-07-20T12:51:08;23.40;94.80
7046;DHT22;3564;53.326;10.356;2023-07-20T12:53:37;23.60;95.30
7046;DHT22;3564;53.326;10.356;2023-07-20T12:56:03;23.70;95.90
7046;DHT22;3564;53.326;10.356;2023-07-20T12:58:29;23.70;94.70
7046;DHT22;3564;53.326;10.356;2023-07-20T13:00:54;23.70;94.00
7046;DHT22;3564;53.326;10.356;2023-07-20T13:03:20;23.70;93.90
7046;DHT22;3564;53.326;10.356;2023-07-20T13:05:46;23.70;94.20
7046;DHT22;3564;53.326;10.356;2023-07-20T13:08:15;23.70;94.30
7046;DHT22;3564;53.326;10.356;2023-07-20T13:10:41;23.70;94.40
7046;DHT22;3564;53.326;10.356;2023-07-20T13:13:07;23.70;94.20
7046;DHT22;3564;53.326;10.356;2023-07-20T13:15:41;23.60;93.30
7046;DHT22;3564;53.326;10.356;2023-07-20T13:18:06;23.50;94.20
7046;DHT22;3564;53.326;10.356;2023-07-20T13:20:35;23.40;93.80
7046;DHT22;3564;53.326;10.356;2023-07-20T13:23:00;23.40;91.80
7046;DHT22;3564;53.326;10.356;2023-07-20T13:25:29;23.30;90.90
7046;DHT22;3564;53.326;10.356;2023-07-20T13:27:54;23.30;91.20
7046;DHT22;3564;53.326;10.356;2023-07-20T13:30:20;23.10;90.70
7046;DHT22;3564;53.326;10.356;2023-07-20T13:32:47;22.90;90.70
7046;DHT22;3564;53.326;10.356;2023-07-20T13:35:12;22.80;90.50
7046;DHT22;3564;53.326;10.356;2023-07-20T13:37:38;22.70;90.80
7046;DHT22;3564;53.326;10.356;2023-07-20T13:40:04;22.60;90.20
7046;DHT22;3564;53.326;10.356;2023-07-20T13:42:31;22.60;90.90
7046;DHT22;3564;53.326;10.356;2023-07-20T13:44:57;22.60;90.50
7046;DHT22;3564;53.326;10.356;2023-07-20T13:47:26;22.60;91.00
7046;DHT22;3564;53.326;10.356;2023-07-20T13:49:52;22.60;91.10
7046;DHT22;3564;53.326;10.356;2023-07-20T13:52:20;22.80;91.60
7046;DHT22;3564;53.326;10.356;2023-07-20T13:54:46;22.80;92.40
7046;DHT22;3564;53.326;10.356;2023-07-20T13:57:11;22.90;92.50
7046;DHT22;3564;53.326;10.356;2023-07-20T13:59:37;22.90;92.20
7046;DHT22;3564;53.326;10.356;2023-07-20T14:02:03;23.00;93.20
7046;DHT22;3564;53.326;10.356;2023-07-20T14:04:28;23.10;93.00
7046;DHT22;3564;53.326;10.356;2023-07-20T14:06:54;23.10;93.00
7046;DHT22;3564;53.326;10.356;2023-07-20T14:09:20;23.20;93.20
7046;DHT22;3564;53.326;10.356;2023-07-20T14:11:45;23.30;93.10
7046;DHT22;3564;53.326;10.356;2023-07-20T14:14:14;23.40;93.10
7046;DHT22;3564;53.326;10.356;2023-07-20T14:16:39;23.40;92.80
7046;DHT22;3564;53.326;10.356;2023-07-20T14:19:05;23.40;92.40
7046;DHT22;3564;53.326;10.356;2023-07-20T14:21:31;23.50;92.00
7046;DHT22;3564;53.326;10.356;2023-07-20T14:23:59;23.40;90.70
7046;DHT22;3564;53.326;10.356;2023-07-20T14:26:31;23.60;91.30
7046;DHT22;3564;53.326;10.356;2023-07-20T14:29:00;23.70;90.90
7046;DHT22;3564;53.326;10.356;2023-07-20T14:31:26;24.00;90.20
7046;DHT22;3564;53.326;10.356;2023-07-20T14:33:55;24.10;89.90
7046;DHT22;3564;53.326;10.356;2023-07-20T14:36:21;24.20;87.90
7046;DHT22;3564;53.326;10.356;2023-07-20T14:38:46;24.40;87.80
7046;DHT22;3564;53.326;10.356;2023-07-20T14:41:12;24.60;88.10
7046;DHT22;3564;53.326;10.356;2023-07-20T14:43:37;24.60;88.50
7046;DHT22;3564;53.326;10.356;2023-07-20T14:46:06;24.50;88.30
7046;DHT22;3564;53.326;10.356;2023-07-20T14:48:35;24.40;89.10
7046;DHT22;3564;53.326;10.356;2023-07-20T14:51:00;24.40;89.80
7046;DHT22;3564;53.326;10.356;2023-07-20T14:53:26;24.60;90.00
7046;DHT22;3564;53.326;10.356;2023-07-20T14:55:58;24.80;90.20
7046;DHT22;3564;53.326;10.356;2023-07-20T14:58:24;24.80;89.30
7046;DHT22;3564;53.326;10.356;2023-07-20T15:00:49;24.90;90.00
7046;DHT22;3564;53.326;10.356;2023-07-20T15:03:15;24.80;88.30
7046;DHT22;3564;53.326;10.356;2023-07-20T15:05:41;24.70;88.80
7046;DHT22;3564;53.326;10.356;2023-07-20T15:08:07;24.60;89.10
7046;DHT22;3564;53.326;10.356;2023-07-20T15:10:34;24.60;89.90
7046;DHT22;3564;53.326;10.356;2023-07-20T15:12:59;24.90;88.30
7046;DHT22;3564;53.326;10.356;2023-07-20T15:15:25;25.20;87.30
7046;DHT22;3564;53.326;10.356;2023-07-20T15:17:54;25.60;86.70
7046;DHT22;3564;53.326;10.356;2023-07-20T15:20:20;25.90;85.80
7046;DHT22;3564;53.326;10.356;2023-07-20T15:22:45;26.00;86.30
7046;DHT22;3564;53.326;10.356;2023-07-20T15:25:11;26.00;85.90
7046;DHT22;3564;53.326;10.356;2023-07-20T15:27:40;26.10;85.20
7046;DHT22;3564;53.326;10.356;2023-07-20T15:30:08;25.90;84.30
7046;DHT22;3564;53.326;10.356;2023-07-20T15:32:34;25.80;85.00
7046;DHT22;3564;53.326;10.356;2023-07-20T15:34:59;25.60;84.70
7046;DHT22;3564;53.326;10.356;2023-07-20T15:37:25;25.70;86.30
7046;DHT22;3564;53.326;10.356;2023-07-20T15:39:54;26.10;86.00
7046;DHT22;3564;53.326;10.356;2023-07-20T15:42:19;26.50;85.40
7046;DHT22;3564;53.326;10.356;2023-07-20T15:44:47;26.90;85.40
7046;DHT22;3564;53.326;10.356;2023-07-20T15:47:16;27.10;82.30
7046;DHT22;3564;53.326;10.356;2023-07-20T15:49:42;27.40;82.00
7046;DHT22;3564;53.326;10.356;2023-07-20T15:52:08;27.60;80.00
7046;DHT22;3564;53.326;10.356;2023-07-20T15:54:34;27.80;79.90
7046;DHT22;3564;53.326;10.356;2023-07-20T15:57:02;27.90;79.30
7046;DHT22;3564;53.326;10.356;2023-07-20T15:59:29;27.80;78.40
7046;DHT22;3564;53.326;10.356;2023-07-20T16:01:54;27.80;78.60
7046;DHT22;3564;53.326;10.356;2023-07-20T16:04:20;27.80;78.60
7046;DHT22;3564;53.326;10.356;2023-07-20T16:06:46;27.90;79.30